Terminal Aerodrome Forecast
Issued by NWS

Home | Current Version | Previous Version | Text Only | Print | Product List | Glossary On
Versions: 1 2 3 4 5 6 7 8 9 10 11 12 13 14 15 16 17 18 19
662
FTUS41 KPHI 242320
TAFPNE
TAF
KPNE 242320Z 2500/2524 12010KT P6SM OVC050
     FM250300 09009KT P6SM OVC015
     FM250500 08012G18KT P6SM BKN008 OVC015
     FM250900 09015G25KT 3SM SHRA BR OVC005
      TEMPO 2511/2515 1SM SHRA OVC003
     FM251500 10007KT 5SM -SHRA OVC008
     FM251800 12007KT P6SM OVC008
     FM252200 14007KT P6SM OVC015 PROB30 2522/2524 4SM TSRA
      BKN015CB=

USA.gov is the U.S. government's official web portal to all federal, state and local government web resources and services.